Time;durP1;ratioP1;P1;durP2;ratioP2;P2;SDS_P1;SDS_P2;PMS_P1;PMS_P2;Temp;Humidity;BMP_temperature;BMP_pressure;BME280_temperature;BME280_humidity;BME280_pressure;Samples;Min_cycle;Max_cycle;Signal;HPM_P1;HPM_P2
2020/12/04 00:01:21;;;;;;;;;;;;;;;;;;5033843;28;19963;-70
2020/12/04 00:03:47;;;;;;;;;;;;;;;;;;5033780;28;19932;-70
2020/12/04 00:06:13;;;;;;;;;;;;;;;;;;5032061;28;19963;-70
2020/12/04 00:08:38;;;;;;;;;;;;;;;;;;5021424;28;20324;-70
2020/12/04 00:11:04;;;;;;;;;;;;;;;;;;5031083;28;19971;-70
2020/12/04 00:13:30;;;;;;;;;;;;;;;;;;5033904;28;19944;-70
2020/12/04 00:15:56;;;;;;;;;;;;;;;;;;5016201;28;19953;-70
2020/12/04 00:18:22;;;;;;;;;;;;;;;;;;5032813;28;19953;-70
2020/12/04 00:20:48;;;;;;;;;;;;;;;;;;5015814;28;20474;-70
2020/12/04 00:23:14;;;;;;;;;;;;;;;;;;5015183;28;19917;-70
2020/12/04 00:25:40;;;;;;;;;;;;;;;;;;5018675;28;19955;-70
2020/12/04 00:28:06;;;;;;;;;;;;;;;;;;5013070;28;20365;-69
2020/12/04 00:30:31;;;;;;;;;;;;;;;;;;5013556;28;19918;-71
2020/12/04 00:32:57;;;;;;;;;;;;;;;;;;5013422;28;19929;-72
2020/12/04 00:35:23;;;;;;;;;;;;;;;;;;5013923;28;20357;-70
2020/12/04 00:37:49;;;;;;;;;;;;;;;;;;5019692;28;19909;-71
2020/12/04 00:40:15;;;;;;;;;;;;;;;;;;5024840;28;19909;-70
2020/12/04 00:42:41;;;;;;;;;;;;;;;;;;5024125;28;19952;-70
2020/12/04 00:45:07;;;;;;;;;;;;;;;;;;5030825;28;19955;-70
2020/12/04 00:47:33;;;;;;;;;;;;;;;;;;5014362;28;19999;-70
2020/12/04 00:49:59;;;;;;;;;;;;;;;;;;5033201;28;20016;-70
2020/12/04 00:52:25;;;;;;;;;;;;;;;;;;5032715;28;20340;-71
2020/12/04 00:54:51;;;;;;;;;;;;;;;;;;5023890;28;19996;-70
2020/12/04 00:57:17;;;;;;;;;;;;;;;;;;5012230;28;19939;-70
2020/12/04 00:59:43;;;;;;;;;;;;;;;;;;5020958;28;19913;-70
2020/12/04 01:02:09;;;;;;;;;;;;;;;;;;5034457;28;19893;-70
2020/12/04 01:04:34;;;;;;;;;;;;;;;;;;5034691;28;20365;-70
2020/12/04 01:07:04;;;;;;;;;;;;;;;;;;5021697;28;19955;-70
2020/12/04 01:09:30;;;;;;;;;;;;;;;;;;5007476;28;19975;-70
2020/12/04 01:11:56;;;;;;;;;;;;;;;;;;5013427;28;19963;-71
2020/12/04 01:14:21;;;;;;;;;;;;;;;;;;5011448;28;19925;-70
2020/12/04 01:16:47;;;;;;;;;;;;;;;;;;5012918;28;19906;-70
2020/12/04 01:19:13;;;;;;;;;;;;;;;;;;5025855;28;19910;-70
2020/12/04 01:21:39;;;;;;;;;;;;;;;;;;5032339;28;19913;-70
2020/12/04 01:24:05;;;;;;;;;;;;;;;;;;5032617;28;19921;-70
2020/12/04 01:26:31;;;;;;;;;;;;;;;;;;5032441;28;19921;-70
2020/12/04 01:28:57;;;;;;;;;;;;;;;;;;5014398;28;19952;-70
2020/12/04 01:31:23;;;;;;;;;;;;;;;;;;5032249;28;20007;-70
2020/12/04 01:33:49;;;;;;;;;;;;;;;;;;5014467;28;20282;-70
2020/12/04 01:36:15;;;;;;;;;;;;;;;;;;5030278;28;19909;-68
2020/12/04 01:38:41;;;;;;;;;;;;;;;;;;5023218;28;19909;-70
2020/12/04 01:41:07;;;;;;;;;;;;;;;;;;5023183;28;20369;-70
2020/12/04 01:43:32;;;;;;;;;;;;;;;;;;5024769;28;19963;-70
2020/12/04 01:45:58;;;;;;;;;;;;;;;;;;5014183;28;19956;-70
2020/12/04 01:48:24;;;;;;;;;;;;;;;;;;5031767;28;20016;-69
2020/12/04 01:50:50;;;;;;;;;;;;;;;;;;5014179;28;19953;-69
2020/12/04 01:53:16;;;;;;;;;;;;;;;;;;5031433;28;20381;-68
2020/12/04 01:55:42;;;;;;;;;;;;;;;;;;5031756;28;19913;-69
2020/12/04 01:58:08;;;;;;;;;;;;;;;;;;5031525;28;20055;-69
2020/12/04 02:00:34;;;;;;;;;;;;;;;;;;5031937;28;20045;-69
2020/12/04 02:03:00;;;;;;;;;;;;;;;;;;5031810;28;19953;-69
2020/12/04 02:05:26;;;;;;;;;;;;;;;;;;5031674;28;19948;-69
2020/12/04 02:07:52;;;;;;;;;;;;;;;;;;5031254;28;20008;-69
2020/12/04 02:10:17;;;;;;;;;;;;;;;;;;5024865;28;20476;-69
2020/12/04 02:12:43;;;;;;;;;;;;;;;;;;5005419;28;20003;-69
2020/12/04 02:15:10;;;;;;;;;;;;;;;;;;5020469;28;20004;-69
2020/12/04 02:17:35;;;;;;;;;;;;;;;;;;5031263;28;19915;-70
2020/12/04 02:20:01;;;;;;;;;;;;;;;;;;5031500;28;19913;-69
2020/12/04 02:22:27;;;;;;;;;;;;;;;;;;5031279;28;19948;-69
2020/12/04 02:24:53;;;;;;;;;;;;;;;;;;5031307;28;19913;-69
2020/12/04 02:27:19;;;;;;;;;;;;;;;;;;5031224;28;19909;-68
2020/12/04 02:29:45;;;;;;;;;;;;;;;;;;5030873;28;19917;-69
2020/12/04 02:32:11;;;;;;;;;;;;;;;;;;5031309;28;19963;-69
2020/12/04 02:34:37;;;;;;;;;;;;;;;;;;4999036;28;19953;-69
2020/12/04 02:37:03;;;;;;;;;;;;;;;;;;5011130;28;19952;-69
2020/12/04 02:39:29;;;;;;;;;;;;;;;;;;5004931;28;19921;-69
2020/12/04 02:41:54;;;;;;;;;;;;;;;;;;5031139;28;19916;-69
2020/12/04 02:44:20;;;;;;;;;;;;;;;;;;5031129;28;19945;-69
2020/12/04 02:46:46;;;;;;;;;;;;;;;;;;5031288;28;19937;-69
2020/12/04 02:49:12;;;;;;;;;;;;;;;;;;5030968;28;19905;-69
2020/12/04 02:51:38;;;;;;;;;;;;;;;;;;5012872;28;20423;-69
2020/12/04 02:54:04;;;;;;;;;;;;;;;;;;5031132;28;19955;-69
2020/12/04 02:56:30;;;;;;;;;;;;;;;;;;5031029;28;19939;-69
2020/12/04 02:58:56;;;;;;;;;;;;;;;;;;5030852;28;20010;-69
2020/12/04 03:01:22;;;;;;;;;;;;;;;;;;5030997;28;19944;-69
2020/12/04 03:03:48;;;;;;;;;;;;;;;;;;5031037;28;19913;-69
2020/12/04 03:06:14;;;;;;;;;;;;;;;;;;5011477;28;19944;-69
2020/12/04 03:08:40;;;;;;;;;;;;;;;;;;5019004;28;20000;-69
2020/12/04 03:11:05;;;;;;;;;;;;;;;;;;5029960;28;19964;-69
2020/12/04 03:13:31;;;;;;;;;;;;;;;;;;5034894;28;20373;-70
2020/12/04 03:15:57;;;;;;;;;;;;;;;;;;5034756;28;19946;-69
2020/12/04 03:18:23;;;;;;;;;;;;;;;;;;5034512;28;19978;-69
2020/12/04 03:20:49;;;;;;;;;;;;;;;;;;5034548;28;19968;-69
2020/12/04 03:23:15;;;;;;;;;;;;;;;;;;5034116;28;19948;-69
2020/12/04 03:25:41;;;;;;;;;;;;;;;;;;5016698;28;20519;-69
2020/12/04 03:28:07;;;;;;;;;;;;;;;;;;5016552;28;20005;-69
2020/12/04 03:30:33;;;;;;;;;;;;;;;;;;5034374;28;20019;-69
2020/12/04 03:32:59;;;;;;;;;;;;;;;;;;5034367;28;20296;-69
2020/12/04 03:35:25;;;;;;;;;;;;;;;;;;5034290;28;19916;-69
2020/12/04 03:37:50;;;;;;;;;;;;;;;;;;5025670;28;19963;-69
2020/12/04 03:40:16;;;;;;;;;;;;;;;;;;5022770;28;19996;-69
2020/12/04 03:42:42;;;;;;;;;;;;;;;;;;5010875;28;19910;-69
2020/12/04 03:45:08;;;;;;;;;;;;;;;;;;5034883;28;19909;-69
2020/12/04 03:47:34;;;;;;;;;;;;;;;;;;5034364;28;19909;-69
2020/12/04 03:50:02;;;;;;;;;;;;;;;;;;5016198;28;19964;-69
2020/12/04 03:52:27;;;;;;;;;;;;;;;;;;5033823;28;19971;-69
2020/12/04 03:54:53;;;;;;;;;;;;;;;;;;5016256;28;20357;-69
2020/12/04 03:57:19;;;;;;;;;;;;;;;;;;5016163;28;19952;-69
2020/12/04 03:59:45;;;;;;;;;;;;;;;;;;5033701;28;19909;-69
2020/12/04 04:02:11;;;;;;;;;;;;;;;;;;5032623;28;19949;-69
2020/12/04 04:04:37;;;;;;;;;;;;;;;;;;5014123;28;19909;-69
2020/12/04 04:07:03;;;;;;;;;;;;;;;;;;5014202;28;19953;-69
2020/12/04 04:09:29;;;;;;;;;;;;;;;;;;5015809;28;20404;-69
2020/12/04 04:11:55;;;;;;;;;;;;;;;;;;5021563;28;19968;-69
2020/12/04 04:14:21;;;;;;;;;;;;;;;;;;5033083;28;19909;-69
2020/12/04 04:16:47;;;;;;;;;;;;;;;;;;5033625;28;19909;-69
2020/12/04 04:19:12;;;;;;;;;;;;;;;;;;5033297;28;19913;-69
2020/12/04 04:21:39;;;;;;;;;;;;;;;;;;5033636;28;20462;-69
2020/12/04 04:24:05;;;;;;;;;;;;;;;;;;5033557;28;19917;-69
2020/12/04 04:26:31;;;;;;;;;;;;;;;;;;5077316;23;19935;-70
2020/12/04 04:28:57;;;;;;;;;;;;;;;;;;5081622;28;19915;-70
2020/12/04 04:31:23;;;;;;;;;;;;;;;;;;5093187;28;19934;-70
2020/12/04 04:33:49;;;;;;;;;;;;;;;;;;5093693;28;19908;-70
2020/12/04 04:36:15;;;;;;;;;;;;;;;;;;5094163;28;20334;-70
2020/12/04 04:38:40;;;;;;;;;;;;;;;;;;5092700;28;20010;-70
2020/12/04 04:41:06;;;;;;;;;;;;;;;;;;5093131;28;19909;-70
2020/12/04 04:43:32;;;;;;;;;;;;;;;;;;5091975;28;19955;-70
2020/12/04 04:45:58;;;;;;;;;;;;;;;;;;5093082;28;19912;-70
2020/12/04 04:48:24;;;;;;;;;;;;;;;;;;5092799;28;19908;-70
2020/12/04 04:50:50;;;;;;;;;;;;;;;;;;5091696;28;20344;-70
2020/12/04 04:53:16;;;;;;;;;;;;;;;;;;5092887;28;19916;-70
2020/12/04 04:55:42;;;;;;;;;;;;;;;;;;5093002;28;19958;-69
2020/12/04 04:58:08;;;;;;;;;;;;;;;;;;5093109;28;19908;-69
2020/12/04 05:00:34;;;;;;;;;;;;;;;;;;5091563;28;19919;-68
2020/12/04 05:03:00;;;;;;;;;;;;;;;;;;5093131;28;19914;-70
2020/12/04 05:05:26;;;;;;;;;;;;;;;;;;5092671;28;19959;-71
2020/12/04 05:07:52;;;;;;;;;;;;;;;;;;5098709;28;19939;-70
2020/12/04 05:10:20;;;;;;;;;;;;;;;;;;5104432;28;20010;-71
2020/12/04 05:12:46;;;;;;;;;;;;;;;;;;5113330;28;19998;-70
2020/12/04 05:15:11;;;;;;;;;;;;;;;;;;5112778;28;20033;-70
2020/12/04 05:17:37;;;;;;;;;;;;;;;;;;5111024;28;20338;-70
2020/12/04 05:20:03;;;;;;;;;;;;;;;;;;5092843;28;20513;-70
2020/12/04 05:22:31;;;;;;;;;;;;;;;;;;5092782;28;19908;-68
2020/12/04 05:24:57;;;;;;;;;;;;;;;;;;5092903;28;19953;-69
2020/12/04 05:27:23;;;;;;;;;;;;;;;;;;5092858;28;20007;-69
2020/12/04 05:29:49;;;;;;;;;;;;;;;;;;5092660;28;19909;-69
2020/12/04 05:32:15;;;;;;;;;;;;;;;;;;5092838;28;19915;-69
2020/12/04 05:34:41;;;;;;;;;;;;;;;;;;5092433;28;19919;-69
2020/12/04 05:37:07;;;;;;;;;;;;;;;;;;5093359;28;19947;-70
2020/12/04 05:39:33;;;;;;;;;;;;;;;;;;5097372;28;19915;-68
2020/12/04 05:41:58;;;;;;;;;;;;;;;;;;5077739;28;20354;-68
2020/12/04 05:44:24;;;;;;;;;;;;;;;;;;5072031;28;19944;-69
2020/12/04 05:46:50;;;;;;;;;;;;;;;;;;5071932;28;19991;-69
2020/12/04 05:49:16;;;;;;;;;;;;;;;;;;5070511;28;20011;-70
2020/12/04 05:51:42;;;;;;;;;;;;;;;;;;5071766;28;19975;-70
2020/12/04 05:54:08;;;;;;;;;;;;;;;;;;5071707;28;19947;-69
2020/12/04 05:56:34;;;;;;;;;;;;;;;;;;5071754;28;19909;-69
2020/12/04 05:59:00;;;;;;;;;;;;;;;;;;5070279;28;20315;-70
2020/12/04 06:01:26;;;;;;;;;;;;;;;;;;5070478;28;19958;-70
2020/12/04 06:03:52;;;;;;;;;;;;;;;;;;5071742;28;19951;-69
2020/12/04 06:06:18;;;;;;;;;;;;;;;;;;5070305;28;20061;-70
2020/12/04 06:08:44;;;;;;;;;;;;;;;;;;5083877;28;19907;-70
2020/12/04 06:11:10;;;;;;;;;;;;;;;;;;5094569;28;19970;-69
2020/12/04 06:13:36;;;;;;;;;;;;;;;;;;5103572;28;19994;-68
2020/12/04 06:16:01;;;;;;;;;;;;;;;;;;5111952;28;20026;-69
2020/12/04 06:18:27;;;;;;;;;;;;;;;;;;5092651;28;19908;-69
2020/12/04 06:20:53;;;;;;;;;;;;;;;;;;5070122;28;19952;-69
2020/12/04 06:23:20;;;;;;;;;;;;;;;;;;5071296;28;20431;-69
2020/12/04 06:25:46;;;;;;;;;;;;;;;;;;5078700;28;19920;-69
2020/12/04 06:28:12;;;;;;;;;;;;;;;;;;5089780;28;20019;-69
2020/12/04 06:30:38;;;;;;;;;;;;;;;;;;5091619;28;20003;-70
2020/12/04 06:33:04;;;;;;;;;;;;;;;;;;5090246;28;19995;-70
2020/12/04 06:35:30;;;;;;;;;;;;;;;;;;5091372;28;19948;-70
2020/12/04 06:37:56;;;;;;;;;;;;;;;;;;5091032;28;19915;-70
2020/12/04 06:40:22;;;;;;;;;;;;;;;;;;5088586;28;19943;-70
2020/12/04 06:42:47;;;;;;;;;;;;;;;;;;5088852;28;19999;-70
2020/12/04 06:45:13;;;;;;;;;;;;;;;;;;5085930;28;20004;-67
2020/12/04 06:47:39;;;;;;;;;;;;;;;;;;5082010;28;20407;-70
2020/12/04 06:50:06;;;;;;;;;;;;;;;;;;5082141;28;19944;-70
2020/12/04 06:52:32;;;;;;;;;;;;;;;;;;5089613;28;19919;-70
2020/12/04 06:54:58;;;;;;;;;;;;;;;;;;5086880;28;19908;-67
2020/12/04 06:57:23;;;;;;;;;;;;;;;;;;5092098;28;19918;-67
2020/12/04 06:59:49;;;;;;;;;;;;;;;;;;5080778;28;20003;-69
2020/12/04 07:02:15;;;;;;;;;;;;;;;;;;5089545;28;19916;-68
2020/12/04 07:04:41;;;;;;;;;;;;;;;;;;5089406;28;19920;-70
2020/12/04 07:07:07;;;;;;;;;;;;;;;;;;5090075;28;20291;-68
2020/12/04 07:09:33;;;;;;;;;;;;;;;;;;5096729;28;19919;-70
2020/12/04 07:11:59;;;;;;;;;;;;;;;;;;5092175;28;19955;-66
2020/12/04 07:14:25;;;;;;;;;;;;;;;;;;5095054;28;19908;-68
2020/12/04 07:16:51;;;;;;;;;;;;;;;;;;5099089;28;19922;-68
2020/12/04 07:19:17;;;;;;;;;;;;;;;;;;5097301;28;19912;-67
2020/12/04 07:21:43;;;;;;;;;;;;;;;;;;5097375;28;19916;-67
2020/12/04 07:24:09;;;;;;;;;;;;;;;;;;5103451;28;19954;-68
2020/12/04 07:26:35;;;;;;;;;;;;;;;;;;5085994;28;19971;-70
2020/12/04 07:29:01;;;;;;;;;;;;;;;;;;5087876;28;19912;-70
2020/12/04 07:31:27;;;;;;;;;;;;;;;;;;5093958;28;19966;-70
2020/12/04 07:33:53;;;;;;;;;;;;;;;;;;5092629;28;20567;-70
2020/12/04 07:36:19;;;;;;;;;;;;;;;;;;5081019;28;20047;-70
2020/12/04 07:38:44;;;;;;;;;;;;;;;;;;5099546;28;20020;-70
2020/12/04 07:41:10;;;;;;;;;;;;;;;;;;5095051;28;19908;-70
2020/12/04 07:43:39;;;;;;;;;;;;;;;;;;5106240;28;19954;-70
2020/12/04 07:46:05;;;;;;;;;;;;;;;;;;5100056;28;19935;-70
2020/12/04 07:48:31;;;;;;;;;;;;;;;;;;5094075;28;20394;-69
2020/12/04 07:50:56;;;;;;;;;;;;;;;;;;5093774;28;19951;-69
2020/12/04 07:53:22;;;;;;;;;;;;;;;;;;5093494;28;19955;-69
2020/12/04 07:55:48;;;;;;;;;;;;;;;;;;5094482;28;19967;-69
2020/12/04 07:58:14;;;;;;;;;;;;;;;;;;5094617;28;19908;-69
2020/12/04 08:00:40;;;;;;;;;;;;;;;;;;5095087;28;19908;-69
2020/12/04 08:03:06;;;;;;;;;;;;;;;;;;5094196;28;20433;-68
2020/12/04 08:05:32;;;;;;;;;;;;;;;;;;5092775;28;19912;-69
2020/12/04 08:07:58;;;;;;;;;;;;;;;;;;5088644;28;19909;-69
2020/12/04 08:10:24;;;;;;;;;;;;;;;;;;5071390;28;19912;-69
2020/12/04 08:12:50;;;;;;;;;;;;;;;;;;5069137;28;19913;-68
2020/12/04 08:15:16;;;;;;;;;;;;;;;;;;5073729;28;19908;-69
2020/12/04 08:17:42;;;;;;;;;;;;;;;;;;5073333;28;19912;-69
2020/12/04 08:20:08;;;;;;;;;;;;;;;;;;5073790;28;19951;-69
2020/12/04 08:22:34;;;;;;;;;;;;;;;;;;5073048;28;19916;-69
2020/12/04 08:27:29;;;;;;;;;;;;;;;;;;5073658;28;19917;-68
2020/12/04 08:29:55;;;;;;;;;;;;;;;;;;5074180;28;19915;-70
2020/12/04 08:32:21;;;;;;;;;;;;;;;;;;5073079;28;19916;-69
2020/12/04 08:34:47;;;;;;;;;;;;;;;;;;5073189;28;19947;-70
2020/12/04 08:37:13;;;;;;;;;;;;;;;;;;5071279;28;19912;-69
2020/12/04 08:39:39;;;;;;;;;;;;;;;;;;5067768;28;19964;-70
2020/12/04 08:42:05;;;;;;;;;;;;;;;;;;5070111;28;19909;-69
2020/12/04 08:44:31;;;;;;;;;;;;;;;;;;5073055;28;19955;-69
2020/12/04 08:46:57;;;;;;;;;;;;;;;;;;5072655;28;19970;-69
2020/12/04 08:49:23;;;;;;;;;;;;;;;;;;5069701;28;20003;-69
2020/12/04 08:51:50;;;;;;;;;;;;;;;;;;5070378;28;20667;-69
2020/12/04 08:54:16;;;;;;;;;;;;;;;;;;5070630;28;19909;-71
2020/12/04 08:56:42;;;;;;;;;;;;;;;;;;5072856;28;19936;-69
2020/12/04 08:59:08;;;;;;;;;;;;;;;;;;5072779;28;19995;-69
2020/12/04 09:01:34;;;;;;;;;;;;;;;;;;5073283;28;19917;-68
2020/12/04 09:04:00;;;;;;;;;;;;;;;;;;5072825;28;19909;-69
2020/12/04 09:06:26;;;;;;;;;;;;;;;;;;5072095;28;20551;-69
2020/12/04 09:08:52;;;;;;;;;;;;;;;;;;5071158;28;19909;-70
2020/12/04 09:11:18;;;;;;;;;;;;;;;;;;5072021;28;20011;-70
2020/12/04 09:13:43;;;;;;;;;;;;;;;;;;5072385;28;19912;-70
2020/12/04 09:16:09;;;;;;;;;;;;;;;;;;5072450;28;20439;-70
2020/12/04 09:18:35;;;;;;;;;;;;;;;;;;5071885;28;19908;-70
2020/12/04 09:21:01;;;;;;;;;;;;;;;;;;5072465;28;19913;-69
2020/12/04 09:23:27;;;;;;;;;;;;;;;;;;5072235;28;20399;-68
2020/12/04 09:25:53;;;;;;;;;;;;;;;;;;5072196;28;20284;-69
2020/12/04 09:28:19;;;;;;;;;;;;;;;;;;5072023;28;20368;-69
2020/12/04 09:30:45;;;;;;;;;;;;;;;;;;5072613;28;19948;-68
2020/12/04 09:33:11;;;;;;;;;;;;;;;;;;5072328;28;20284;-69
2020/12/04 09:35:37;;;;;;;;;;;;;;;;;;5072131;28;19920;-69
2020/12/04 09:38:03;;;;;;;;;;;;;;;;;;5071584;28;19913;-69
2020/12/04 09:40:29;;;;;;;;;;;;;;;;;;5072143;28;19977;-69
2020/12/04 09:42:55;;;;;;;;;;;;;;;;;;5069367;28;19915;-69
2020/12/04 09:45:21;;;;;;;;;;;;;;;;;;5071365;28;20366;-68
2020/12/04 09:47:46;;;;;;;;;;;;;;;;;;5071821;28;20263;-68
2020/12/04 09:50:14;;;;;;;;;;;;;;;;;;5072266;28;19909;-68
2020/12/04 09:52:40;;;;;;;;;;;;;;;;;;5072334;28;19920;-69
2020/12/04 09:55:06;;;;;;;;;;;;;;;;;;5070826;28;19915;-68
2020/12/04 09:57:34;;;;;;;;;;;;;;;;;;5071712;28;20382;-69
2020/12/04 10:00:00;;;;;;;;;;;;;;;;;;5070733;28;19908;-68
2020/12/04 10:02:26;;;;;;;;;;;;;;;;;;5072899;28;19908;-68
2020/12/04 10:04:52;;;;;;;;;;;;;;;;;;5072142;28;20394;-68
2020/12/04 10:07:18;;;;;;;;;;;;;;;;;;5072624;28;19908;-69
2020/12/04 10:09:44;;;;;;;;;;;;;;;;;;5073213;28;19908;-70
2020/12/04 10:12:09;;;;;;;;;;;;;;;;;;5072995;28;19970;-69
2020/12/04 10:14:35;;;;;;;;;;;;;;;;;;5069630;28;20339;-70
2020/12/04 10:17:01;;;;;;;;;;;;;;;;;;5072569;28;20388;-69
2020/12/04 10:19:27;;;;;;;;;;;;;;;;;;5060013;28;20000;-69
2020/12/04 10:21:53;;;;;;;;;;;;;;;;;;5070200;28;20414;-70
2020/12/04 10:24:19;;;;;;;;;;;;;;;;;;5072081;28;19916;-69
2020/12/04 10:26:45;;;;;;;;;;;;;;;;;;5071945;28;20406;-69
2020/12/04 10:29:11;;;;;;;;;;;;;;;;;;5072049;28;19908;-68
2020/12/04 10:31:37;;;;;;;;;;;;;;;;;;5072171;28;20382;-69
2020/12/04 10:34:03;;;;;;;;;;;;;;;;;;5071895;28;20383;-69
2020/12/04 10:36:30;;;;;;;;;;;;;;;;;;5071703;28;19916;-70
2020/12/04 10:38:56;;;;;;;;;;;;;;;;;;5072277;28;19908;-70
2020/12/04 10:44:02;;;;;;;;;;;;;;;;;;5048134;28;20293;-72
2020/12/04 10:46:28;;;;;;;;;;;;;;;;;;5047934;28;19909;-71
2020/12/04 10:48:54;;;;;;;;;;;;;;;;;;5039946;28;19939;-71
2020/12/04 10:51:20;;;;;;;;;;;;;;;;;;5067432;28;19916;-71
2020/12/04 10:53:46;;;;;;;;;;;;;;;;;;5043250;28;19909;-72
2020/12/04 10:56:12;;;;;;;;;;;;;;;;;;5039890;28;19913;-72
2020/12/04 10:58:38;;;;;;;;;;;;;;;;;;5047845;28;20347;-73
2020/12/04 11:01:04;;;;;;;;;;;;;;;;;;5047765;28;19916;-71
2020/12/04 11:05:25;;;;;;;;;;;;;;;;;;5034741;28;20485;-71
2020/12/04 11:06:19;;;;;;;;;;;;;;;;;;5051829;28;20371;-71
2020/12/04 11:08:46;;;;;;;;;;;;;;;;;;5050677;28;19917;-71
2020/12/04 11:11:12;;;;;;;;;;;;;;;;;;5041256;28;20291;-71
2020/12/04 11:13:39;;;;;;;;;;;;;;;;;;5051687;28;19915;-71
2020/12/04 11:16:05;;;;;;;;;;;;;;;;;;5042739;28;20127;-71
2020/12/04 11:18:33;;;;;;;;;;;;;;;;;;5031976;28;19909;-71
2020/12/04 11:20:59;;;;;;;;;;;;;;;;;;5030835;28;19939;-70
2020/12/04 11:23:25;;;;;;;;;;;;;;;;;;5032114;28;20036;-70
2020/12/04 11:25:51;;;;;;;;;;;;;;;;;;5030626;28;19982;-70
2020/12/04 11:28:17;;;;;;;;;;;;;;;;;;5030514;28;20567;-71
2020/12/04 11:30:43;;;;;;;;;;;;;;;;;;5038486;28;20099;-71
2020/12/04 11:33:09;;;;;;;;;;;;;;;;;;5047516;28;20003;-71
2020/12/04 11:35:35;;;;;;;;;;;;;;;;;;5053400;28;20009;-71
2020/12/04 11:38:02;;;;;;;;;;;;;;;;;;5052663;28;19952;-72
2020/12/04 11:40:28;;;;;;;;;;;;;;;;;;5054930;28;19909;-72
2020/12/04 11:42:54;;;;;;;;;;;;;;;;;;5053847;28;19924;-71
2020/12/04 11:45:20;;;;;;;;;;;;;;;;;;5053419;28;19905;-72
2020/12/04 11:47:46;;;;;;;;;;;;;;;;;;5053513;28;19908;-71
2020/12/04 11:50:12;;;;;;;;;;;;;;;;;;5053252;28;20359;-72
2020/12/04 11:52:38;;;;;;;;;;;;;;;;;;5055050;28;19920;-72
2020/12/04 11:55:04;;;;;;;;;;;;;;;;;;5053329;28;20383;-71
2020/12/04 11:57:30;;;;;;;;;;;;;;;;;;5053455;28;19909;-71
2020/12/04 11:59:56;;;;;;;;;;;;;;;;;;5054615;28;19908;-71
2020/12/04 12:02:22;;;;;;;;;;;;;;;;;;5049967;28;19909;-71
2020/12/04 12:04:48;;;;;;;;;;;;;;;;;;5048509;28;20389;-71
2020/12/04 12:07:14;;;;;;;;;;;;;;;;;;5045267;28;19913;-71
2020/12/04 12:09:40;;;;;;;;;;;;;;;;;;5047595;28;20317;-71
2020/12/04 12:12:06;;;;;;;;;;;;;;;;;;5034923;28;19936;-71
2020/12/04 12:14:32;;;;;;;;;;;;;;;;;;5034779;28;19916;-72
2020/12/04 12:16:58;;;;;;;;;;;;;;;;;;5033383;28;19909;-71
2020/12/04 12:19:24;;;;;;;;;;;;;;;;;;5033168;28;19910;-70
2020/12/04 12:21:50;;;;;;;;;;;;;;;;;;5033587;28;20537;-71
2020/12/04 12:24:16;;;;;;;;;;;;;;;;;;5034033;28;19909;-71
2020/12/04 12:26:42;;;;;;;;;;;;;;;;;;5034925;28;19971;-72
2020/12/04 12:29:08;;;;;;;;;;;;;;;;;;5036576;28;20363;-71
2020/12/04 12:31:34;;;;;;;;;;;;;;;;;;5035135;28;20390;-72
2020/12/04 12:34:00;;;;;;;;;;;;;;;;;;5036659;28;19984;-72
2020/12/04 12:36:26;;;;;;;;;;;;;;;;;;5034371;28;20381;-71
2020/12/04 12:38:57;;;;;;;;;;;;;;;;;;5048584;28;19992;-72
2020/12/04 12:41:23;;;;;;;;;;;;;;;;;;5053117;28;20347;-72
2020/12/04 12:43:49;;;;;;;;;;;;;;;;;;5051916;28;19924;-71
2020/12/04 12:46:15;;;;;;;;;;;;;;;;;;5050212;28;20294;-72
2020/12/04 12:48:41;;;;;;;;;;;;;;;;;;5046817;28;19932;-72
2020/12/04 12:51:07;;;;;;;;;;;;;;;;;;5052903;28;19947;-72
2020/12/04 12:53:33;;;;;;;;;;;;;;;;;;5054507;28;19909;-71
2020/12/04 12:55:59;;;;;;;;;;;;;;;;;;5053614;28;20364;-72
2020/12/04 12:58:25;;;;;;;;;;;;;;;;;;5051965;28;19958;-72
2020/12/04 13:00:51;;;;;;;;;;;;;;;;;;5052169;28;19951;-72
2020/12/04 13:03:16;;;;;;;;;;;;;;;;;;5053454;28;20448;-72
2020/12/04 13:05:42;;;;;;;;;;;;;;;;;;5053438;28;20507;-72
2020/12/04 13:08:08;;;;;;;;;;;;;;;;;;5051346;28;19916;-72
2020/12/04 13:10:34;;;;;;;;;;;;;;;;;;5044656;28;19916;-72
2020/12/04 13:13:00;;;;;;;;;;;;;;;;;;5048464;28;19913;-73
2020/12/04 13:15:26;;;;;;;;;;;;;;;;;;5041819;28;19957;-72
2020/12/04 13:17:52;;;;;;;;;;;;;;;;;;5036471;28;19952;-72
2020/12/04 13:20:18;;;;;;;;;;;;;;;;;;5031647;28;19913;-72
2020/12/04 13:23:12;;;;;;;;;;;;;;;;;;5031802;28;19948;-72
2020/12/04 13:25:30;;;;;;;;;;;;;;;;;;5032707;28;20290;-71
2020/12/04 13:27:56;;;;;;;;;;;;;;;;;;5031292;28;20015;-72
2020/12/04 13:30:22;;;;;;;;;;;;;;;;;;5031396;28;19952;-72
2020/12/04 13:32:48;;;;;;;;;;;;;;;;;;5031536;28;19916;-73
2020/12/04 13:35:14;;;;;;;;;;;;;;;;;;5031516;28;19951;-72
2020/12/04 13:37:40;;;;;;;;;;;;;;;;;;5042452;28;19909;-72
2020/12/04 13:40:06;;;;;;;;;;;;;;;;;;5042876;28;20016;-72
2020/12/04 13:42:32;;;;;;;;;;;;;;;;;;5046084;28;20000;-72
2020/12/04 13:44:58;;;;;;;;;;;;;;;;;;5039025;28;19971;-71
2020/12/04 13:47:23;;;;;;;;;;;;;;;;;;5031005;28;20027;-72
2020/12/04 13:49:50;;;;;;;;;;;;;;;;;;5031059;28;19906;-72
2020/12/04 13:52:16;;;;;;;;;;;;;;;;;;5030973;28;19913;-72
2020/12/04 13:54:42;;;;;;;;;;;;;;;;;;5030737;28;20282;-73
2020/12/04 13:57:08;;;;;;;;;;;;;;;;;;5032208;28;19909;-72
2020/12/04 13:59:34;;;;;;;;;;;;;;;;;;5031237;28;19909;-72
2020/12/04 14:02:00;;;;;;;;;;;;;;;;;;5041142;28;19952;-72
2020/12/04 14:04:25;;;;;;;;;;;;;;;;;;5050738;28;19953;-72
2020/12/04 14:06:51;;;;;;;;;;;;;;;;;;5048372;28;19967;-72
2020/12/04 14:09:17;;;;;;;;;;;;;;;;;;5046768;28;19944;-72
2020/12/04 14:11:43;;;;;;;;;;;;;;;;;;5045510;28;19964;-72
2020/12/04 14:14:09;;;;;;;;;;;;;;;;;;5050077;28;19940;-72
2020/12/04 14:16:37;;;;;;;;;;;;;;;;;;5047819;28;19916;-72
2020/12/04 14:19:03;;;;;;;;;;;;;;;;;;5041513;28;19927;-72
2020/12/04 14:21:28;;;;;;;;;;;;;;;;;;5050327;28;19936;-72
2020/12/04 14:23:55;;;;;;;;;;;;;;;;;;5048359;28;20602;-72
2020/12/04 14:26:21;;;;;;;;;;;;;;;;;;5030212;28;19910;-72
2020/12/04 14:28:47;;;;;;;;;;;;;;;;;;5030081;28;19936;-72
2020/12/04 14:31:13;;;;;;;;;;;;;;;;;;5030214;28;19920;-72
2020/12/04 14:33:38;;;;;;;;;;;;;;;;;;5030334;28;19984;-72
2020/12/04 14:36:04;;;;;;;;;;;;;;;;;;5030448;28;19913;-72
2020/12/04 14:41:15;;;;;;;;;;;;;;;;;;5049863;28;19938;-72
2020/12/04 14:43:41;;;;;;;;;;;;;;;;;;5050157;28;19917;-72
2020/12/04 14:46:07;;;;;;;;;;;;;;;;;;5050159;28;20366;-72
2020/12/04 14:48:33;;;;;;;;;;;;;;;;;;5049898;28;19913;-72
2020/12/04 14:50:59;;;;;;;;;;;;;;;;;;5049898;28;19913;-72
2020/12/04 14:53:25;;;;;;;;;;;;;;;;;;5050536;28;19920;-72
2020/12/04 14:55:51;;;;;;;;;;;;;;;;;;5050072;28;19909;-72
2020/12/04 14:58:17;;;;;;;;;;;;;;;;;;5050117;28;19999;-72
2020/12/04 15:00:43;;;;;;;;;;;;;;;;;;5049220;28;19947;-73
2020/12/04 15:03:09;;;;;;;;;;;;;;;;;;5051422;28;19913;-72
2020/12/04 15:05:35;;;;;;;;;;;;;;;;;;5043432;28;19932;-73
2020/12/04 15:08:01;;;;;;;;;;;;;;;;;;5045743;28;20280;-73
2020/12/04 15:10:27;;;;;;;;;;;;;;;;;;5047401;28;19909;-72
2020/12/04 15:12:53;;;;;;;;;;;;;;;;;;5046479;28;19909;-73
2020/12/04 15:15:19;;;;;;;;;;;;;;;;;;5061155;28;19916;-72
2020/12/04 15:17:45;;;;;;;;;;;;;;;;;;5059640;28;19912;-70
2020/12/04 15:20:11;;;;;;;;;;;;;;;;;;5056457;28;19909;-71
2020/12/04 15:22:37;;;;;;;;;;;;;;;;;;5038714;28;19910;-71
2020/12/04 15:25:03;;;;;;;;;;;;;;;;;;5060854;28;20023;-71
2020/12/04 15:27:29;;;;;;;;;;;;;;;;;;5059863;28;20268;-71
2020/12/04 15:29:55;;;;;;;;;;;;;;;;;;5053529;28;20391;-71
2020/12/04 15:32:22;;;;;;;;;;;;;;;;;;5051628;28;20003;-70
2020/12/04 15:34:48;;;;;;;;;;;;;;;;;;5044564;28;20326;-71
2020/12/04 15:37:14;;;;;;;;;;;;;;;;;;5040494;28;19941;-71
2020/12/04 15:39:40;;;;;;;;;;;;;;;;;;5054543;28;19909;-71
2020/12/04 15:42:06;;;;;;;;;;;;;;;;;;5053595;28;19935;-70
2020/12/04 15:44:32;;;;;;;;;;;;;;;;;;5062177;28;19917;-71
2020/12/04 15:46:58;;;;;;;;;;;;;;;;;;5060918;28;19908;-71
2020/12/04 15:49:24;;;;;;;;;;;;;;;;;;5061307;28;19915;-71
2020/12/04 15:51:50;;;;;;;;;;;;;;;;;;5060609;28;19916;-74
2020/12/04 15:54:17;;;;;;;;;;;;;;;;;;5061585;28;19927;-71
2020/12/04 15:56:43;;;;;;;;;;;;;;;;;;5061788;28;19915;-71
2020/12/04 15:59:09;;;;;;;;;;;;;;;;;;5061041;28;19908;-70
2020/12/04 16:01:35;;;;;;;;;;;;;;;;;;5060460;28;19919;-70
2020/12/04 16:04:01;;;;;;;;;;;;;;;;;;5061335;28;20042;-71
2020/12/04 16:06:29;;;;;;;;;;;;;;;;;;5060247;28;19970;-71
2020/12/04 16:08:55;;;;;;;;;;;;;;;;;;5055685;28;19932;-71
2020/12/04 16:11:21;;;;;;;;;;;;;;;;;;5048112;28;20394;-71
2020/12/04 16:13:47;;;;;;;;;;;;;;;;;;5047066;28;20004;-71
2020/12/04 16:16:15;;;;;;;;;;;;;;;;;;5041073;28;20482;-71
2020/12/04 16:18:41;;;;;;;;;;;;;;;;;;5037406;28;19910;-71
2020/12/04 16:21:07;;;;;;;;;;;;;;;;;;5036358;28;19909;-71
2020/12/04 16:23:33;;;;;;;;;;;;;;;;;;5050827;28;19952;-71
2020/12/04 16:25:59;;;;;;;;;;;;;;;;;;5049803;28;19915;-70
2020/12/04 16:28:28;;;;;;;;;;;;;;;;;;5041820;28;19910;-70
2020/12/04 16:30:54;;;;;;;;;;;;;;;;;;5042393;28;19920;-70
2020/12/04 16:33:19;;;;;;;;;;;;;;;;;;5043750;28;19909;-70
2020/12/04 16:35:45;;;;;;;;;;;;;;;;;;5041619;28;19913;-70
2020/12/04 16:38:11;;;;;;;;;;;;;;;;;;5043583;28;19913;-71
2020/12/04 16:40:37;;;;;;;;;;;;;;;;;;5043264;28;19909;-70
2020/12/04 16:43:03;;;;;;;;;;;;;;;;;;5041739;28;20323;-71
2020/12/04 16:45:29;;;;;;;;;;;;;;;;;;5043262;28;19984;-71